Portada
METAR-TAF:

METAR-TAF

Aeroports :

Corinth, Mississipí, Estats Units d'Amèrica

latitud: 34-54-54N, longitud: 088-36-13W, altitud: 130 m

Observació

L'informe es va fer fa 26 minuts, a les 00:55 UTC
Vent 7 kt del Oest/Sud-Oest
Temperatura 5°C
Humitat 81%
Pressió 1017 hPa
Visibilitat: 16.1 km
Escasses núvols a una alçada de 3800 ft
Cel cobert a una alçada de 4900 ft

METAR: KCRX 250055Z AUTO 25007KT 10SM FEW038 OVC049 05/02 A3004 RMK AO2

Hora: 19:21 (01:21 UTC)


TAF: manca

Observacions i pronòstics meteorològics de més de 4000 aeroports (METAR i TAF).

Les estacions disponibles són els punts grocs i vermells al mapa.

Posi el ratolí al punt desitjat per veure el nom de l'estació.

Feu clic per veure les observacions i els pronòstics meteorològics.

Per canviar el mapa: feu clic els botons verds amb una creu de color negre per apropar; al botó verd amb un guió per allunyar la imatge; o en les fletxes verdes per a mapes adjacents.


METAR-TAF: